sensor_id;sensor_type;location;lat;lon;timestamp;pressure;altitude;pressure_sealevel;temperature;humidity
70589;BME280;58152;49.202;18.744;2022-12-08T00:01:27;96990.38;;;2.71;67.73
70589;BME280;58152;49.202;18.744;2022-12-08T00:03:53;96990.38;;;2.70;67.66
70589;BME280;58152;49.202;18.744;2022-12-08T00:06:25;96987.88;;;2.67;67.61
70589;BME280;58152;49.202;18.744;2022-12-08T00:09:31;96985.28;;;2.67;67.47
70589;BME280;58152;49.202;18.744;2022-12-08T00:11:58;96978.47;;;2.63;67.46
70589;BME280;58152;49.202;18.744;2022-12-08T00:14:33;96975.84;;;2.64;67.60
70589;BME280;58152;49.202;18.744;2022-12-08T00:17:00;96971.50;;;2.65;67.33
70589;BME280;58152;49.202;18.744;2022-12-08T00:19:27;96974.09;;;2.65;67.44
70589;BME280;58152;49.202;18.744;2022-12-08T00:21:56;96979.22;;;2.68;67.64
70589;BME280;58152;49.202;18.744;2022-12-08T00:24:23;96964.72;;;2.59;67.74
70589;BME280;58152;49.202;18.744;2022-12-08T00:26:51;96983.59;;;2.64;67.60
70589;BME280;58152;49.202;18.744;2022-12-08T00:29:16;96982.66;;;2.68;67.82
70589;BME280;58152;49.202;18.744;2022-12-08T00:31:42;96972.44;;;2.61;67.69
70589;BME280;58152;49.202;18.744;2022-12-08T00:34:08;96980.13;;;2.67;67.24
70589;BME280;58152;49.202;18.744;2022-12-08T00:36:33;96983.50;;;2.69;67.68
70589;BME280;58152;49.202;18.744;2022-12-08T00:38:59;96988.69;;;2.69;67.85
70589;BME280;58152;49.202;18.744;2022-12-08T00:41:28;96978.41;;;2.64;67.29
70589;BME280;58152;49.202;18.744;2022-12-08T00:44:14;96985.25;;;2.68;67.60
70589;BME280;58152;49.202;18.744;2022-12-08T00:46:41;96983.47;;;2.72;67.55
70589;BME280;58152;49.202;18.744;2022-12-08T00:49:07;96984.31;;;2.72;67.84
70589;BME280;58152;49.202;18.744;2022-12-08T00:51:33;96976.63;;;2.68;67.84
70589;BME280;58152;49.202;18.744;2022-12-08T00:53:58;96990.34;;;2.73;67.48
70589;BME280;58152;49.202;18.744;2022-12-08T00:56:25;96981.66;;;2.75;67.71
70589;BME280;58152;49.202;18.744;2022-12-08T00:58:50;96987.81;;;2.70;67.33
70589;BME280;58152;49.202;18.744;2022-12-08T01:01:16;96985.09;;;2.76;67.45
70589;BME280;58152;49.202;18.744;2022-12-08T01:03:43;96974.00;;;2.69;67.74
70589;BME280;58152;49.202;18.744;2022-12-08T01:06:09;96992.00;;;2.77;67.45
70589;BME280;58152;49.202;18.744;2022-12-08T01:08:35;96992.88;;;2.74;67.40
70589;BME280;58152;49.202;18.744;2022-12-08T01:11:05;96982.53;;;2.74;67.60
70589;BME280;58152;49.202;18.744;2022-12-08T01:13:31;96986.06;;;2.72;67.29
70589;BME280;58152;49.202;18.744;2022-12-08T01:15:56;96990.28;;;2.74;67.06
70589;BME280;58152;49.202;18.744;2022-12-08T01:18:22;96997.22;;;2.74;67.34
70589;BME280;58152;49.202;18.744;2022-12-08T01:20:47;96994.63;;;2.74;67.53
70589;BME280;58152;49.202;18.744;2022-12-08T01:23:13;97000.66;;;2.76;67.53
70589;BME280;58152;49.202;18.744;2022-12-08T01:25:38;96999.81;;;2.75;67.16
70589;BME280;58152;49.202;18.744;2022-12-08T01:28:04;96990.34;;;2.73;67.34
70589;BME280;58152;49.202;18.744;2022-12-08T01:30:29;96989.53;;;2.69;67.08
70589;BME280;58152;49.202;18.744;2022-12-08T01:32:55;97003.28;;;2.73;67.38
70589;BME280;58152;49.202;18.744;2022-12-08T01:35:21;96996.44;;;2.70;67.67
70589;BME280;58152;49.202;18.744;2022-12-08T01:37:48;97001.59;;;2.72;67.35
70589;BME280;58152;49.202;18.744;2022-12-08T01:40:14;96990.47;;;2.67;67.06
70589;BME280;58152;49.202;18.744;2022-12-08T01:42:40;96996.44;;;2.70;67.00
70589;BME280;58152;49.202;18.744;2022-12-08T01:45:29;96999.84;;;2.72;67.29
70589;BME280;58152;49.202;18.744;2022-12-08T01:48:09;96993.88;;;2.70;67.39
70589;BME280;58152;49.202;18.744;2022-12-08T01:50:38;96986.94;;;2.69;67.13
70589;BME280;58152;49.202;18.744;2022-12-08T01:53:10;96990.38;;;2.71;66.98
70589;BME280;58152;49.202;18.744;2022-12-08T01:55:41;96995.56;;;2.71;67.03
70589;BME280;58152;49.202;18.744;2022-12-08T01:58:15;96986.16;;;2.67;67.18
70589;BME280;58152;49.202;18.744;2022-12-08T02:00:43;96987.84;;;2.68;67.39
70589;BME280;58152;49.202;18.744;2022-12-08T02:03:14;96993.78;;;2.73;66.87
70589;BME280;58152;49.202;18.744;2022-12-08T02:05:41;96984.34;;;2.71;67.24
70589;BME280;58152;49.202;18.744;2022-12-08T02:08:10;96992.94;;;2.73;66.99
70589;BME280;58152;49.202;18.744;2022-12-08T02:10:39;96980.91;;;2.70;67.02
70589;BME280;58152;49.202;18.744;2022-12-08T02:13:08;96984.34;;;2.71;67.14
70589;BME280;58152;49.202;18.744;2022-12-08T02:18:49;96991.19;;;2.73;67.28
70589;BME280;58152;49.202;18.744;2022-12-08T02:46:51;96962.69;;;2.73;67.09
70589;BME280;58152;49.202;18.744;2022-12-08T02:49:18;96967.97;;;2.70;67.08
70589;BME280;58152;49.202;18.744;2022-12-08T02:51:44;96961.84;;;2.73;67.28
70589;BME280;58152;49.202;18.744;2022-12-08T02:54:09;96973.03;;;2.75;66.62
70589;BME280;58152;49.202;18.744;2022-12-08T02:59:25;96961.00;;;2.72;66.82
70589;BME280;58152;49.202;18.744;2022-12-08T03:02:12;96957.50;;;2.73;67.03
70589;BME280;58152;49.202;18.744;2022-12-08T03:08:01;96949.78;;;2.72;67.15
70589;BME280;58152;49.202;18.744;2022-12-08T03:10:39;96953.13;;;2.77;66.91
70589;BME280;58152;49.202;18.744;2022-12-08T03:13:12;96948.00;;;2.74;67.10
70589;BME280;58152;49.202;18.744;2022-12-08T03:15:39;96954.06;;;2.73;66.97
70589;BME280;58152;49.202;18.744;2022-12-08T03:18:07;96954.91;;;2.73;67.54
70589;BME280;58152;49.202;18.744;2022-12-08T03:20:34;96949.75;;;2.73;67.57
70589;BME280;58152;49.202;18.744;2022-12-08T03:23:04;96948.94;;;2.70;67.51
70589;BME280;58152;49.202;18.744;2022-12-08T03:25:35;96950.66;;;2.71;67.37
70589;BME280;58152;49.202;18.744;2022-12-08T03:28:03;96947.16;;;2.73;67.63
70589;BME280;58152;49.202;18.744;2022-12-08T03:30:31;96953.13;;;2.77;67.50
70589;BME280;58152;49.202;18.744;2022-12-08T03:33:10;96953.16;;;2.75;67.09
70589;BME280;58152;49.202;18.744;2022-12-08T03:35:39;96945.50;;;2.71;67.36
70589;BME280;58152;49.202;18.744;2022-12-08T03:38:12;96932.56;;;2.69;67.75
70589;BME280;58152;49.202;18.744;2022-12-08T03:40:38;96937.63;;;2.74;67.66
70589;BME280;58152;49.202;18.744;2022-12-08T03:43:04;96947.94;;;2.77;67.47
70589;BME280;58152;49.202;18.744;2022-12-08T03:45:30;96942.81;;;2.74;67.65
70589;BME280;58152;49.202;18.744;2022-12-08T03:47:56;96949.72;;;2.75;67.75
70589;BME280;58152;49.202;18.744;2022-12-08T03:50:21;96946.31;;;2.73;67.71
70589;BME280;58152;49.202;18.744;2022-12-08T03:52:47;96951.47;;;2.73;67.85
70589;BME280;58152;49.202;18.744;2022-12-08T03:55:13;96948.00;;;2.74;67.81
70589;BME280;58152;49.202;18.744;2022-12-08T03:57:39;96947.19;;;2.72;67.68
70589;BME280;58152;49.202;18.744;2022-12-08T04:00:06;96963.53;;;2.74;68.05
70589;BME280;58152;49.202;18.744;2022-12-08T04:02:32;96944.66;;;2.69;68.09
70589;BME280;58152;49.202;18.744;2022-12-08T04:04:57;96947.19;;;2.72;68.26
70589;BME280;58152;49.202;18.744;2022-12-08T04:07:23;96937.81;;;2.65;68.43
70589;BME280;58152;49.202;18.744;2022-12-08T04:09:48;96946.41;;;2.68;68.81
70589;BME280;58152;49.202;18.744;2022-12-08T04:12:13;96948.09;;;2.69;68.85
70589;BME280;58152;49.202;18.744;2022-12-08T04:14:39;96940.38;;;2.68;68.82
70589;BME280;58152;49.202;18.744;2022-12-08T04:17:04;96943.75;;;2.70;69.09
70589;BME280;58152;49.202;18.744;2022-12-08T04:19:30;96947.25;;;2.69;68.61
70589;BME280;58152;49.202;18.744;2022-12-08T04:21:55;96953.31;;;2.68;68.83
70589;BME280;58152;49.202;18.744;2022-12-08T04:24:21;96949.03;;;2.67;68.91
70589;BME280;58152;49.202;18.744;2022-12-08T04:26:46;96943.00;;;2.65;69.22
70589;BME280;58152;49.202;18.744;2022-12-08T04:29:14;96951.56;;;2.68;69.13
70589;BME280;58152;49.202;18.744;2022-12-08T04:31:43;96939.66;;;2.61;69.21
70589;BME280;58152;49.202;18.744;2022-12-08T04:34:08;96949.94;;;2.64;69.45
70589;BME280;58152;49.202;18.744;2022-12-08T04:36:35;96949.09;;;2.64;69.23
70589;BME280;58152;49.202;18.744;2022-12-08T04:39:01;96941.34;;;2.61;69.75
70589;BME280;58152;49.202;18.744;2022-12-08T04:41:26;96941.34;;;2.62;69.35
70589;BME280;58152;49.202;18.744;2022-12-08T04:43:51;96934.56;;;2.55;69.36
70589;BME280;58152;49.202;18.744;2022-12-08T04:46:17;96938.84;;;2.58;69.41
70589;BME280;58152;49.202;18.744;2022-12-08T04:48:42;96943.09;;;2.60;69.61
70589;BME280;58152;49.202;18.744;2022-12-08T04:51:15;96928.50;;;2.56;69.50
70589;BME280;58152;49.202;18.744;2022-12-08T04:53:42;96937.06;;;2.60;69.68
70589;BME280;58152;49.202;18.744;2022-12-08T04:56:12;96934.56;;;2.55;69.58
70589;BME280;58152;49.202;18.744;2022-12-08T04:58:38;96928.59;;;2.51;69.49
70589;BME280;58152;49.202;18.744;2022-12-08T05:01:04;96926.91;;;2.50;69.82
70589;BME280;58152;49.202;18.744;2022-12-08T05:03:29;96923.50;;;2.48;70.04
70589;BME280;58152;49.202;18.744;2022-12-08T05:05:55;96934.66;;;2.50;69.95
70589;BME280;58152;49.202;18.744;2022-12-08T05:08:23;96926.91;;;2.50;69.96
70589;BME280;58152;49.202;18.744;2022-12-08T05:10:48;96934.72;;;2.49;70.19
70589;BME280;58152;49.202;18.744;2022-12-08T05:13:14;96920.13;;;2.45;70.03
70589;BME280;58152;49.202;18.744;2022-12-08T05:15:39;96925.25;;;2.46;70.00
70589;BME280;58152;49.202;18.744;2022-12-08T05:18:05;96922.75;;;2.43;70.11
70589;BME280;58152;49.202;18.744;2022-12-08T05:20:36;96924.44;;;2.43;69.92
70589;BME280;58152;49.202;18.744;2022-12-08T05:23:02;96923.59;;;2.42;70.16
70589;BME280;58152;49.202;18.744;2022-12-08T05:25:27;96927.03;;;2.43;70.40
70589;BME280;58152;49.202;18.744;2022-12-08T05:27:53;96919.38;;;2.38;69.95
70589;BME280;58152;49.202;18.744;2022-12-08T05:30:19;96933.13;;;2.42;70.23
70589;BME280;58152;49.202;18.744;2022-12-08T05:32:44;96934.84;;;2.41;70.36
70589;BME280;58152;49.202;18.744;2022-12-08T05:35:10;96933.97;;;2.42;70.36
70589;BME280;58152;49.202;18.744;2022-12-08T05:37:35;96922.84;;;2.39;70.08
70589;BME280;58152;49.202;18.744;2022-12-08T05:40:01;96930.59;;;2.39;70.36
70589;BME280;58152;49.202;18.744;2022-12-08T05:42:27;96925.47;;;2.36;70.39
70589;BME280;58152;49.202;18.744;2022-12-08T05:44:52;96923.78;;;2.35;70.38
70589;BME280;58152;49.202;18.744;2022-12-08T05:47:18;96921.19;;;2.33;70.57
70589;BME280;58152;49.202;18.744;2022-12-08T05:49:43;96920.38;;;2.31;70.53
70589;BME280;58152;49.202;18.744;2022-12-08T05:52:09;96922.09;;;2.32;70.46
70589;BME280;58152;49.202;18.744;2022-12-08T05:54:34;96917.81;;;2.31;70.45
70589;BME280;58152;49.202;18.744;2022-12-08T05:57:00;96927.25;;;2.32;70.18
70589;BME280;58152;49.202;18.744;2022-12-08T05:59:25;96912.59;;;2.33;70.20
70589;BME280;58152;49.202;18.744;2022-12-08T06:01:51;96914.34;;;2.31;70.55
70589;BME280;58152;49.202;18.744;2022-12-08T06:04:16;96914.38;;;2.29;70.54
70589;BME280;58152;49.202;18.744;2022-12-08T06:06:42;96916.97;;;2.29;70.34
70589;BME280;58152;49.202;18.744;2022-12-08T06:09:10;96926.38;;;2.33;70.48
70589;BME280;58152;49.202;18.744;2022-12-08T06:11:36;96928.19;;;2.29;70.80
70589;BME280;58152;49.202;18.744;2022-12-08T06:14:02;96940.16;;;2.34;70.80
70589;BME280;58152;49.202;18.744;2022-12-08T06:16:28;96925.56;;;2.31;71.06
70589;BME280;58152;49.202;18.744;2022-12-08T06:18:55;96928.16;;;2.31;70.59
70589;BME280;58152;49.202;18.744;2022-12-08T06:21:23;96920.44;;;2.29;70.72
70589;BME280;58152;49.202;18.744;2022-12-08T06:23:51;96929.75;;;2.37;70.61
70589;BME280;58152;49.202;18.744;2022-12-08T06:26:17;96935.88;;;2.34;70.75
70589;BME280;58152;49.202;18.744;2022-12-08T06:28:43;96939.31;;;2.35;70.51
70589;BME280;58152;49.202;18.744;2022-12-08T06:31:11;96925.63;;;2.28;70.31
70589;BME280;58152;49.202;18.744;2022-12-08T06:33:38;96935.06;;;2.29;70.86
70589;BME280;58152;49.202;18.744;2022-12-08T06:36:04;96940.25;;;2.29;70.61
70589;BME280;58152;49.202;18.744;2022-12-08T06:38:30;96935.91;;;2.31;70.61
70589;BME280;58152;49.202;18.744;2022-12-08T06:40:57;96941.09;;;2.31;71.04
70589;BME280;58152;49.202;18.744;2022-12-08T06:43:23;96931.63;;;2.28;71.04
70589;BME280;58152;49.202;18.744;2022-12-08T06:45:49;96941.09;;;2.31;71.04
70589;BME280;58152;49.202;18.744;2022-12-08T06:48:16;96938.56;;;2.28;71.19
70589;BME280;58152;49.202;18.744;2022-12-08T06:50:42;96943.63;;;2.34;71.27
70589;BME280;58152;49.202;18.744;2022-12-08T06:53:13;96941.16;;;2.28;70.75
70589;BME280;58152;49.202;18.744;2022-12-08T06:55:50;96951.41;;;2.34;71.07
70589;BME280;58152;49.202;18.744;2022-12-08T06:58:19;96954.72;;;2.41;71.25
70589;BME280;58152;49.202;18.744;2022-12-08T07:00:45;96955.53;;;2.43;71.36
70589;BME280;58152;49.202;18.744;2022-12-08T07:03:19;96950.25;;;2.49;70.88
70589;BME280;58152;49.202;18.744;2022-12-08T07:05:54;96954.53;;;2.50;70.60
70589;BME280;58152;49.202;18.744;2022-12-08T07:08:35;96958.91;;;2.48;70.83
70589;BME280;58152;49.202;18.744;2022-12-08T07:14:32;96953.81;;;2.42;71.05
70589;BME280;58152;49.202;18.744;2022-12-08T07:16:58;96964.84;;;2.53;71.00
70589;BME280;58152;49.202;18.744;2022-12-08T07:19:23;96953.75;;;2.46;71.17
70589;BME280;58152;49.202;18.744;2022-12-08T07:21:50;96964.97;;;2.45;71.19
70589;BME280;58152;49.202;18.744;2022-12-08T07:24:15;96959.84;;;2.44;71.34
70589;BME280;58152;49.202;18.744;2022-12-08T07:26:49;96970.22;;;2.42;71.33
70589;BME280;58152;49.202;18.744;2022-12-08T07:29:15;96956.41;;;2.42;71.37
70589;BME280;58152;49.202;18.744;2022-12-08T07:31:40;96953.81;;;2.42;71.24
70589;BME280;58152;49.202;18.744;2022-12-08T07:34:06;96959.81;;;2.45;71.48
70589;BME280;58152;49.202;18.744;2022-12-08T07:36:31;96950.34;;;2.43;71.20
70589;BME280;58152;49.202;18.744;2022-12-08T07:38:57;96953.88;;;2.40;71.28
70589;BME280;58152;49.202;18.744;2022-12-08T07:41:24;96967.53;;;2.48;71.36
70589;BME280;58152;49.202;18.744;2022-12-08T07:43:53;96952.97;;;2.41;71.35
70589;BME280;58152;49.202;18.744;2022-12-08T07:46:20;96949.56;;;2.39;71.10
70589;BME280;58152;49.202;18.744;2022-12-08T07:48:54;96955.47;;;2.46;71.34
70589;BME280;58152;49.202;18.744;2022-12-08T07:51:21;96955.47;;;2.46;71.47
70589;BME280;58152;49.202;18.744;2022-12-08T07:53:48;96957.16;;;2.48;71.71
70589;BME280;58152;49.202;18.744;2022-12-08T07:56:14;96964.84;;;2.51;71.40
70589;BME280;58152;49.202;18.744;2022-12-08T07:58:40;96956.28;;;2.49;71.40
70589;BME280;58152;49.202;18.744;2022-12-08T08:01:20;96956.22;;;2.52;71.40
70589;BME280;58152;49.202;18.744;2022-12-08T08:03:46;96955.38;;;2.50;71.08
70589;BME280;58152;49.202;18.744;2022-12-08T08:06:12;96939.84;;;2.50;71.15
70589;BME280;58152;49.202;18.744;2022-12-08T08:08:38;96945.91;;;2.49;71.15
70589;BME280;58152;49.202;18.744;2022-12-08T08:11:06;96940.66;;;2.54;70.96
70589;BME280;58152;49.202;18.744;2022-12-08T08:13:32;96943.28;;;2.51;71.13
70589;BME280;58152;49.202;18.744;2022-12-08T08:16:08;96944.03;;;2.56;71.20
70589;BME280;58152;49.202;18.744;2022-12-08T08:18:35;96938.00;;;2.57;71.19
70589;BME280;58152;49.202;18.744;2022-12-08T08:21:02;96943.09;;;2.60;71.05
70589;BME280;58152;49.202;18.744;2022-12-08T08:23:27;96939.59;;;2.63;71.34
70589;BME280;58152;49.202;18.744;2022-12-08T08:25:53;96957.59;;;2.70;71.00
70589;BME280;58152;49.202;18.744;2022-12-08T08:28:19;96944.66;;;2.69;70.85
70589;BME280;58152;49.202;18.744;2022-12-08T08:30:45;96945.41;;;2.74;71.22
70589;BME280;58152;49.202;18.744;2022-12-08T08:33:11;96948.03;;;2.72;71.05
70589;BME280;58152;49.202;18.744;2022-12-08T08:35:37;96935.09;;;2.72;71.33
70589;BME280;58152;49.202;18.744;2022-12-08T08:38:02;96944.56;;;2.75;71.04
70589;BME280;58152;49.202;18.744;2022-12-08T08:40:28;96935.00;;;2.77;71.04
70589;BME280;58152;49.202;18.744;2022-12-08T08:42:53;96945.25;;;2.82;71.15
70589;BME280;58152;49.202;18.744;2022-12-08T08:45:18;96948.66;;;2.85;70.98
70589;BME280;58152;49.202;18.744;2022-12-08T08:47:44;96952.88;;;2.89;70.71
70589;BME280;58152;49.202;18.744;2022-12-08T08:50:10;96945.09;;;2.89;70.36
70589;BME280;58152;49.202;18.744;2022-12-08T08:52:35;96952.75;;;2.95;70.56
70589;BME280;58152;49.202;18.744;2022-12-08T08:55:01;96945.81;;;2.96;70.42
70589;BME280;58152;49.202;18.744;2022-12-08T08:57:26;96935.50;;;2.93;70.48
70589;BME280;58152;49.202;18.744;2022-12-08T08:59:52;96938.00;;;2.97;70.38
70589;BME280;58152;49.202;18.744;2022-12-08T09:02:18;96938.00;;;2.97;70.46
70589;BME280;58152;49.202;18.744;2022-12-08T09:04:45;96949.00;;;3.09;70.54
70589;BME280;58152;49.202;18.744;2022-12-08T09:07:12;96936.03;;;3.09;70.48
70589;BME280;58152;49.202;18.744;2022-12-08T09:09:38;96930.84;;;3.09;70.11
70589;BME280;58152;49.202;18.744;2022-12-08T09:12:03;96942.75;;;3.16;70.35
70589;BME280;58152;49.202;18.744;2022-12-08T09:14:38;96937.47;;;3.20;70.03
70589;BME280;58152;49.202;18.744;2022-12-08T09:17:06;96938.47;;;3.16;70.11
70589;BME280;58152;49.202;18.744;2022-12-08T09:19:33;96939.22;;;3.20;69.80
70589;BME280;58152;49.202;18.744;2022-12-08T09:21:58;96929.75;;;3.19;69.87
70589;BME280;58152;49.202;18.744;2022-12-08T09:24:24;96925.50;;;3.16;70.22
70589;BME280;58152;49.202;18.744;2022-12-08T09:26:49;96925.50;;;3.15;70.19
70589;BME280;58152;49.202;18.744;2022-12-08T09:29:15;96930.63;;;3.18;70.09
70589;BME280;58152;49.202;18.744;2022-12-08T09:31:42;96917.78;;;3.13;70.00
70589;BME280;58152;49.202;18.744;2022-12-08T09:34:07;96920.34;;;3.15;69.59
70589;BME280;58152;49.202;18.744;2022-12-08T09:36:34;96916.09;;;3.12;69.86
70589;BME280;58152;49.202;18.744;2022-12-08T09:38:59;96912.53;;;3.16;69.85
70589;BME280;58152;49.202;18.744;2022-12-08T09:41:34;96918.59;;;3.15;70.08
70589;BME280;58152;49.202;18.744;2022-12-08T09:46:58;96913.41;;;3.15;70.52
70589;BME280;58152;49.202;18.744;2022-12-08T09:49:38;96910.78;;;3.17;70.51
70589;BME280;58152;49.202;18.744;2022-12-08T09:52:32;96892.75;;;3.12;70.65
70589;BME280;58152;49.202;18.744;2022-12-08T09:55:27;96895.38;;;3.11;70.76
70589;BME280;58152;49.202;18.744;2022-12-08T09:58:01;96892.75;;;3.12;70.50
70589;BME280;58152;49.202;18.744;2022-12-08T10:00:31;96882.50;;;3.08;70.75
70589;BME280;58152;49.202;18.744;2022-12-08T10:03:10;96890.97;;;3.14;70.77
70589;BME280;58152;49.202;18.744;2022-12-08T10:05:40;96891.03;;;3.11;70.94
70589;BME280;58152;49.202;18.744;2022-12-08T10:08:18;96892.78;;;3.11;70.94
70589;BME280;58152;49.202;18.744;2022-12-08T10:10:46;96896.22;;;3.11;71.25
70589;BME280;58152;49.202;18.744;2022-12-08T10:18:31;96891.06;;;3.10;70.95
70589;BME280;58152;49.202;18.744;2022-12-08T10:21:28;96888.41;;;3.13;71.31
70589;BME280;58152;49.202;18.744;2022-12-08T10:23:50;96884.88;;;3.15;71.31
70589;BME280;58152;49.202;18.744;2022-12-08T10:26:19;96884.03;;;3.15;71.07
70589;BME280;58152;49.202;18.744;2022-12-08T10:28:45;96873.72;;;3.13;70.97
70589;BME280;58152;49.202;18.744;2022-12-08T10:31:30;96882.16;;;3.21;71.32
70589;BME280;58152;49.202;18.744;2022-12-08T10:34:04;96869.16;;;3.23;71.39
70589;BME280;58152;49.202;18.744;2022-12-08T10:40:27;96862.16;;;3.26;71.08
70589;BME280;58152;49.202;18.744;2022-12-08T10:42:56;96859.56;;;3.26;71.02
70589;BME280;58152;49.202;18.744;2022-12-08T10:45:23;96861.16;;;3.32;71.12
70589;BME280;58152;49.202;18.744;2022-12-08T10:48:02;96868.88;;;3.35;71.21
70589;BME280;58152;49.202;18.744;2022-12-08T10:50:34;96863.72;;;3.34;70.50
70589;BME280;58152;49.202;18.744;2022-12-08T10:53:15;96859.47;;;3.31;70.74
70589;BME280;58152;49.202;18.744;2022-12-08T10:58:42;96849.94;;;3.31;71.45
70589;BME280;58152;49.202;18.744;2022-12-08T11:01:20;96846.44;;;3.33;70.75
70589;BME280;58152;49.202;18.744;2022-12-08T11:03:54;96844.63;;;3.36;71.34
70589;BME280;58152;49.202;18.744;2022-12-08T11:06:33;96836.91;;;3.35;71.06
70589;BME280;58152;49.202;18.744;2022-12-08T11:09:02;96847.16;;;3.39;70.96
70589;BME280;58152;49.202;18.744;2022-12-08T11:11:46;96842.78;;;3.41;71.18
70589;BME280;58152;49.202;18.744;2022-12-08T11:14:35;96832.47;;;3.40;71.17
70589;BME280;58152;49.202;18.744;2022-12-08T11:17:05;96822.94;;;3.40;70.88
70589;BME280;58152;49.202;18.744;2022-12-08T11:19:36;96835.72;;;3.46;71.34
70589;BME280;58152;49.202;18.744;2022-12-08T11:22:20;96831.38;;;3.48;71.26
70589;BME280;58152;49.202;18.744;2022-12-08T11:24:55;96827.03;;;3.49;71.18
70589;BME280;58152;49.202;18.744;2022-12-08T11:27:30;96826.09;;;3.51;71.30
70589;BME280;58152;49.202;18.744;2022-12-08T11:29:56;96826.03;;;3.54;71.23
70589;BME280;58152;49.202;18.744;2022-12-08T11:32:22;96826.81;;;3.56;71.02
70589;BME280;58152;49.202;18.744;2022-12-08T11:35:01;96818.13;;;3.59;70.77
70589;BME280;58152;49.202;18.744;2022-12-08T11:37:36;96816.41;;;3.58;70.95
70589;BME280;58152;49.202;18.744;2022-12-08T11:40:27;96812.16;;;3.55;71.05
70589;BME280;58152;49.202;18.744;2022-12-08T11:45:34;96817.28;;;3.57;71.15
70589;BME280;58152;49.202;18.744;2022-12-08T11:48:13;96809.50;;;3.59;70.95
70589;BME280;58152;49.202;18.744;2022-12-08T11:51:12;96802.63;;;3.56;71.14
70589;BME280;58152;49.202;18.744;2022-12-08T11:56:32;96807.75;;;3.59;71.59
70589;BME280;58152;49.202;18.744;2022-12-08T11:59:28;96807.78;;;3.58;71.05
70589;BME280;58152;49.202;18.744;2022-12-08T12:02:00;96796.63;;;3.54;70.97
70589;BME280;58152;49.202;18.744;2022-12-08T12:05:04;96802.56;;;3.59;71.31
70589;BME280;58152;49.202;18.744;2022-12-08T12:10:31;96808.63;;;3.58;70.85
70589;BME280;58152;49.202;18.744;2022-12-08T12:19:00;96790.38;;;3.61;70.86
70589;BME280;58152;49.202;18.744;2022-12-08T12:23:57;96793.88;;;3.60;69.51
70589;BME280;58152;49.202;18.744;2022-12-08T12:26:47;96798.22;;;3.60;69.29
70589;BME280;58152;49.202;18.744;2022-12-08T12:29:19;96801.59;;;3.62;69.30
70589;BME280;58152;49.202;18.744;2022-12-08T12:31:57;96801.53;;;3.65;69.01
70589;BME280;58152;49.202;18.744;2022-12-08T12:34:26;96798.09;;;3.64;69.25
70589;BME280;58152;49.202;18.744;2022-12-08T12:36:56;96790.47;;;3.58;68.92
70589;BME280;58152;49.202;18.744;2022-12-08T12:39:45;96793.81;;;3.62;69.09
70589;BME280;58152;49.202;18.744;2022-12-08T12:42:41;96800.63;;;3.67;68.73
70589;BME280;58152;49.202;18.744;2022-12-08T12:50:36;96776.38;;;3.68;67.79
70589;BME280;58152;49.202;18.744;2022-12-08T12:53:45;96775.47;;;3.69;67.49
70589;BME280;58152;49.202;18.744;2022-12-08T12:55:59;96762.50;;;3.69;66.78
70589;BME280;58152;49.202;18.744;2022-12-08T13:03:45;96763.22;;;3.74;66.85
70589;BME280;58152;49.202;18.744;2022-12-08T13:06:13;96757.09;;;3.77;66.16
70589;BME280;58152;49.202;18.744;2022-12-08T13:08:48;96754.53;;;3.75;65.76
70589;BME280;58152;49.202;18.744;2022-12-08T13:11:15;96756.19;;;3.78;66.41
70589;BME280;58152;49.202;18.744;2022-12-08T13:14:00;96748.38;;;3.79;65.75
70589;BME280;58152;49.202;18.744;2022-12-08T13:16:31;96756.19;;;3.78;65.67
70589;BME280;58152;49.202;18.744;2022-12-08T13:19:03;96759.63;;;3.78;65.16
70589;BME280;58152;49.202;18.744;2022-12-08T13:21:37;96756.13;;;3.81;65.09
70589;BME280;58152;49.202;18.744;2022-12-08T13:29:36;96767.56;;;3.74;63.46
70589;BME280;58152;49.202;18.744;2022-12-08T13:34:49;96768.56;;;3.68;62.56
70589;BME280;58152;49.202;18.744;2022-12-08T13:37:28;96773.78;;;3.68;62.83
70589;BME280;58152;49.202;18.744;2022-12-08T13:40:02;96763.47;;;3.65;62.92
70589;BME280;58152;49.202;18.744;2022-12-08T13:47:44;96753.13;;;3.64;63.07
70589;BME280;58152;49.202;18.744;2022-12-08T13:50:14;96754.00;;;3.64;63.67
70589;BME280;58152;49.202;18.744;2022-12-08T13:53:09;96753.19;;;3.62;62.91
70589;BME280;58152;49.202;18.744;2022-12-08T13:55:48;96758.19;;;3.68;63.66
70589;BME280;58152;49.202;18.744;2022-12-08T14:03:54;96762.44;;;3.71;63.31
70589;BME280;58152;49.202;18.744;2022-12-08T14:06:37;96762.44;;;3.71;63.36
70589;BME280;58152;49.202;18.744;2022-12-08T14:09:06;96757.31;;;3.69;63.56
70589;BME280;58152;49.202;18.744;2022-12-08T14:11:40;96757.31;;;3.69;63.50
70589;BME280;58152;49.202;18.744;2022-12-08T14:14:15;96761.66;;;3.69;63.71
70589;BME280;58152;49.202;18.744;2022-12-08T14:16:48;96762.50;;;3.69;63.55
70589;BME280;58152;49.202;18.744;2022-12-08T14:19:18;96762.41;;;3.72;63.41
70589;BME280;58152;49.202;18.744;2022-12-08T14:21:46;96764.13;;;3.73;63.78
70589;BME280;58152;49.202;18.744;2022-12-08T14:24:12;96757.22;;;3.72;62.94
70589;BME280;58152;49.202;18.744;2022-12-08T14:26:38;96752.03;;;3.72;62.58
70589;BME280;58152;49.202;18.744;2022-12-08T14:29:06;96764.13;;;3.73;62.58
70589;BME280;58152;49.202;18.744;2022-12-08T14:31:32;96756.38;;;3.72;62.54
70589;BME280;58152;49.202;18.744;2022-12-08T14:33:58;96755.53;;;3.71;62.20
70589;BME280;58152;49.202;18.744;2022-12-08T14:36:24;96751.28;;;3.69;62.20
70589;BME280;58152;49.202;18.744;2022-12-08T14:38:53;96758.16;;;3.70;62.36
70589;BME280;58152;49.202;18.744;2022-12-08T14:41:25;96750.38;;;3.70;62.71
70589;BME280;58152;49.202;18.744;2022-12-08T14:43:58;96757.34;;;3.68;62.13
70589;BME280;58152;49.202;18.744;2022-12-08T14:47:03;96745.22;;;3.68;61.55
70589;BME280;58152;49.202;18.744;2022-12-08T14:49:44;96741.91;;;3.63;62.04
70589;BME280;58152;49.202;18.744;2022-12-08T14:52:12;96758.19;;;3.68;61.78
70589;BME280;58152;49.202;18.744;2022-12-08T14:54:42;96747.94;;;3.64;62.19